Ana Sayfa
METAR-TAF:

METAR-TAF

Havaalanları :

Blue Ridge Airport

Martinsville, Virginia, Amerika Birleşik Devletleri

Enlem: 36-38N, Boylam: 080-01W, yükseklik: 287 m

Güncel hava durumu gözlemi

Rapor saat 18:35 UTC de 21 dakika önce yapıldı.
Rüzgar güneybatıdan 4 kt
Sıcaklık 28°C
Nem 66%
Basınç 1014 hPa
Görüş mesafesi: 16.1 km
2900 ft yükseklikte parçalı çok bulutlu

METAR: KMTV 051835Z AUTO 22004KT 10SM BKN029 28/21 A2995 RMK AO2 T02780206

Saat: 14:56 (18:56 UTC)


TAF: eksik

4.000'den fazla havaalanı için hava durumu gözlemleri ve tahminleri (METAR ve TAF raporları).

Kullanılabilir istasyonlar harita üzerinde sarı ve kırmızı noktalarla gösterilir.

İstasyonun adını görmek için fareyi noktanın üzerinde gezdirin.

Sonrasında hava gözlem ve tahminlerini görmek için tıklayın.

Haritayı değiştirmek için: yaklaştırmak için siyah artı işaretli yeşil düğmeye ve uzaklaştırmak için de eksi işaretli düğmeye hızla tıklayın; bitişik haritalar için yeşil okları kullanın.


METAR-TAF: